Time;durP1;ratioP1;P1;durP2;ratioP2;P2;SDS_P1;SDS_P2;PMS_P1;PMS_P2;Temp;Humidity;BMP_temperature;BMP_pressure;BME280_temperature;BME280_humidity;BME280_pressure;Samples;Min_cycle;Max_cycle;Signal;HPM_P1;HPM_P2
2023/08/01 00:00:32;;;;;;;81.22;52.33;;;19.20;85.00;;;;;;4920329;28;91647;-46
2023/08/01 00:02:57;;;;;;;81.75;52.83;;;19.20;85.00;;;;;;4929160;28;89911;-47
2023/08/01 00:05:23;;;;;;;81.05;52.28;;;19.20;87.50;;;;;;4930995;28;91571;-46
2023/08/01 00:07:49;;;;;;;81.55;52.40;;;19.20;85.10;;;;;;4928672;28;89494;-45
2023/08/01 00:10:16;;;;;;;82.10;52.47;;;19.20;85.00;;;;;;4916515;28;95242;-45
2023/08/01 00:12:42;;;;;;;80.70;52.35;;;19.10;85.80;;;;;;4899003;28;93044;-44
2023/08/01 00:15:08;;;;;;;81.70;52.35;;;19.10;84.80;;;;;;4893355;28;91137;-45
2023/08/01 00:17:34;;;;;;;81.18;52.20;;;19.10;85.40;;;;;;4920903;28;91532;-45
2023/08/01 00:20:01;;;;;;;80.78;52.35;;;19.10;88.30;;;;;;4917407;28;94376;-45
2023/08/01 00:22:27;;;;;;;81.30;52.35;;;19.10;87.20;;;;;;4925832;28;92297;-44
2023/08/01 00:24:52;;;;;;;81.38;52.42;;;19.10;85.20;;;;;;4925780;28;89819;-45
2023/08/01 00:27:18;;;;;;;81.13;52.28;;;19.10;85.00;;;;;;4927521;28;89074;-46
2023/08/01 00:29:45;;;;;;;82.30;52.55;;;19.10;84.90;;;;;;4920667;28;91478;-45
2023/08/01 00:32:10;;;;;;;81.25;52.33;;;19.00;86.20;;;;;;4928784;28;90958;-46
2023/08/01 00:34:37;;;;;;;81.93;52.60;;;19.00;86.40;;;;;;4930378;28;90466;-45
2023/08/01 00:37:02;;;;;;;80.82;52.25;;;19.00;85.90;;;;;;4928603;28;90236;-45
2023/08/01 00:39:28;;;;;;;80.95;52.13;;;19.00;85.50;;;;;;4924071;28;90030;-45
2023/08/01 00:41:53;;;;;;;81.03;52.55;;;19.00;84.80;;;;;;4928251;28;92607;-47
2023/08/01 00:44:19;;;;;;;81.78;52.88;;;19.00;85.20;;;;;;4922738;28;93349;-43
2023/08/01 00:46:45;;;;;;;81.00;52.45;;;19.00;85.50;;;;;;4927578;28;90180;-43
2023/08/01 00:49:12;;;;;;;81.45;52.55;;;18.90;84.90;;;;;;4926446;28;90580;-43
2023/08/01 00:51:37;;;;;;;80.63;52.15;;;18.90;85.10;;;;;;4926094;28;88754;-44
2023/08/01 00:54:03;;;;;;;82.40;52.55;;;18.90;85.10;;;;;;4923418;28;89919;-44
2023/08/01 00:56:29;;;;;;;81.68;52.55;;;18.90;85.90;;;;;;4931753;28;89994;-43
2023/08/01 00:58:54;;;;;;;81.53;52.67;;;18.90;85.30;;;;;;4923354;28;90507;-44
2023/08/01 01:01:20;;;;;;;81.78;52.35;;;18.90;85.30;;;;;;4926581;28;89757;-45
2023/08/01 01:03:46;;;;;;;81.32;52.65;;;18.80;85.00;;;;;;4921148;28;89554;-45
2023/08/01 01:06:32;;;;;;;81.63;52.75;;;18.80;85.10;;;;;;4922419;28;91887;-43
2023/08/01 01:08:57;;;;;;;81.38;52.35;;;18.80;85.10;;;;;;4917910;28;91150;-44
2023/08/01 01:11:23;;;;;;;81.05;52.45;;;18.80;87.70;;;;;;4928240;28;91955;-44
2023/08/01 01:13:52;;;;;;;81.55;52.53;;;18.80;85.30;;;;;;4923138;28;90401;-44
2023/08/01 01:16:18;;;;;;;81.80;52.60;;;18.80;85.00;;;;;;4926864;28;89790;-43
2023/08/01 01:18:44;;;;;;;82.63;52.50;;;18.70;84.90;;;;;;4924476;28;91058;-45
2023/08/01 01:21:10;;;;;;;82.88;52.33;;;18.70;85.80;;;;;;4922403;28;91339;-43
2023/08/01 01:23:37;;;;;;;80.82;52.38;;;18.70;85.00;;;;;;4923944;28;91001;-44
2023/08/01 01:26:04;;;;;;;81.80;52.40;;;18.70;85.50;;;;;;4925576;28;89545;-43
2023/08/01 01:28:30;;;;;;;81.53;52.28;;;18.60;86.20;;;;;;4928150;28;91622;-43
2023/08/01 01:30:57;;;;;;;82.13;52.92;;;18.60;85.90;;;;;;4927102;28;90576;-44
2023/08/01 01:33:23;;;;;;;82.72;52.58;;;18.60;85.70;;;;;;4926841;28;89675;-43
2023/08/01 01:35:49;;;;;;;80.68;52.35;;;18.60;85.70;;;;;;4925996;28;91431;-45
2023/08/01 01:38:15;;;;;;;81.75;52.63;;;18.50;85.10;;;;;;4927231;28;90402;-43
2023/08/01 01:40:40;;;;;;;82.72;52.78;;;18.60;85.50;;;;;;4923712;28;88922;-44
2023/08/01 01:43:06;;;;;;;82.03;52.65;;;18.50;87.00;;;;;;4923382;28;90342;-44
2023/08/01 01:45:32;;;;;;;81.50;52.55;;;18.50;85.80;;;;;;4927110;28;91044;-45
2023/08/01 01:47:57;;;;;;;82.38;52.80;;;18.50;86.50;;;;;;4927944;28;90870;-46
2023/08/01 01:50:23;;;;;;;80.88;52.53;;;18.50;86.50;;;;;;4911228;28;91647;-46
2023/08/01 01:52:49;;;;;;;81.95;52.95;;;18.50;85.80;;;;;;4925566;28;89533;-48
2023/08/01 01:55:14;;;;;;;82.22;52.85;;;18.40;85.90;;;;;;4924893;28;89712;-45
2023/08/01 01:57:40;;;;;;;82.22;52.70;;;18.40;85.90;;;;;;4927276;28;92846;-46
2023/08/01 02:00:10;;;;;;;82.65;52.95;;;18.40;85.80;;;;;;4918765;28;92803;-44
2023/08/01 02:02:36;;;;;;;81.53;52.95;;;18.40;88.80;;;;;;4929571;28;89760;-44
2023/08/01 02:05:03;;;;;;;82.60;52.88;;;18.40;85.70;;;;;;4925206;28;88875;-44
2023/08/01 02:07:29;;;;;;;82.72;52.60;;;18.30;88.20;;;;;;4924420;28;90077;-45
2023/08/01 02:09:55;;;;;;;84.43;53.28;;;18.30;86.20;;;;;;4921901;28;90222;-46
2023/08/01 02:12:20;;;;;;;83.28;52.95;;;18.30;85.70;;;;;;4927146;28;91256;-45
2023/08/01 02:14:46;;;;;;;81.28;52.65;;;18.30;85.60;;;;;;4932972;28;90185;-44
2023/08/01 02:17:12;;;;;;;81.57;52.95;;;18.30;87.90;;;;;;4924972;28;94963;-44
2023/08/01 02:19:37;;;;;;;81.68;52.40;;;18.30;86.40;;;;;;4923139;28;91631;-44
2023/08/01 02:22:03;;;;;;;82.72;52.75;;;18.30;88.70;;;;;;4924583;28;92185;-45
2023/08/01 02:24:28;;;;;;;83.03;53.50;;;18.30;86.20;;;;;;4934024;28;92746;-45
2023/08/01 02:26:54;;;;;;;85.00;53.17;;;18.30;86.00;;;;;;4929471;28;92484;-44
2023/08/01 02:29:20;;;;;;;82.95;53.20;;;18.30;85.90;;;;;;4926616;28;89963;-43
2023/08/01 02:31:45;;;;;;;82.57;53.45;;;18.30;85.70;;;;;;4922199;28;89874;-44
2023/08/01 02:34:11;;;;;;;81.68;52.58;;;18.30;86.40;;;;;;4923900;28;89677;-44
2023/08/01 02:36:36;;;;;;;82.82;53.33;;;18.30;88.70;;;;;;4928070;28;92239;-45
2023/08/01 02:39:02;;;;;;;82.40;52.83;;;18.30;86.10;;;;;;4925143;28;90846;-44
2023/08/01 02:41:28;;;;;;;83.63;53.28;;;18.30;86.50;;;;;;4925584;28;89636;-45
2023/08/01 02:43:53;;;;;;;81.50;52.67;;;18.30;86.50;;;;;;4927187;28;90101;-45
2023/08/01 02:46:19;;;;;;;82.80;52.75;;;18.30;86.00;;;;;;4923915;28;90340;-44
2023/08/01 02:48:45;;;;;;;82.78;53.10;;;18.20;86.60;;;;;;4905290;28;92609;-46
2023/08/01 02:51:10;;;;;;;83.65;53.25;;;18.30;87.70;;;;;;4912474;28;90517;-46
2023/08/01 02:53:36;;;;;;;81.88;52.90;;;18.30;85.30;;;;;;4927712;28;90194;-44
2023/08/01 02:56:04;;;;;;;81.78;53.05;;;18.30;85.70;;;;;;4922770;28;92190;-45
2023/08/01 02:58:30;;;;;;;83.43;53.05;;;18.30;86.00;;;;;;4926959;28;90501;-44
2023/08/01 03:00:56;;;;;;;82.75;53.10;;;18.20;85.50;;;;;;4913457;28;90616;-44
2023/08/01 03:03:21;;;;;;;81.90;52.97;;;18.30;85.00;;;;;;4925424;28;90946;-44
2023/08/01 03:05:47;;;;;;;83.53;53.08;;;18.30;86.60;;;;;;4924454;28;91654;-45
2023/08/01 03:08:13;;;;;;;82.65;53.35;;;18.20;85.80;;;;;;4921395;28;90538;-45
2023/08/01 03:10:39;;;;;;;83.65;53.40;;;18.20;85.70;;;;;;4919428;28;89967;-44
2023/08/01 03:13:04;;;;;;;81.75;53.15;;;18.20;87.10;;;;;;4922585;28;91465;-45
2023/08/01 03:15:30;;;;;;;84.03;53.22;;;18.20;85.80;;;;;;4922104;28;89922;-44
2023/08/01 03:17:55;;;;;;;84.40;52.95;;;18.20;87.60;;;;;;4930122;28;89412;-45
2023/08/01 03:20:22;;;;;;;82.85;53.35;;;18.20;85.40;;;;;;4921260;28;90144;-43
2023/08/01 03:22:48;;;;;;;83.00;53.33;;;18.10;87.30;;;;;;4924745;28;90096;-44
2023/08/01 03:25:14;;;;;;;83.88;53.13;;;18.10;85.60;;;;;;4926089;28;90816;-43
2023/08/01 03:27:39;;;;;;;83.50;52.90;;;18.10;85.70;;;;;;4928063;28;90095;-43
2023/08/01 03:30:08;;;;;;;84.70;53.30;;;18.10;85.50;;;;;;4924321;28;91087;-43
2023/08/01 03:32:34;;;;;;;82.97;53.28;;;18.10;86.20;;;;;;4928935;28;89469;-43
2023/08/01 03:35:00;;;;;;;82.40;53.30;;;18.10;85.20;;;;;;4930692;28;90832;-45
2023/08/01 03:37:26;;;;;;;84.00;53.38;;;18.10;85.70;;;;;;4925523;28;91099;-44
2023/08/01 03:39:51;;;;;;;82.07;53.38;;;18.10;87.80;;;;;;4905176;28;91029;-43
2023/08/01 03:42:17;;;;;;;82.22;53.28;;;18.10;85.60;;;;;;4926925;28;91832;-43
2023/08/01 03:44:42;;;;;;;81.72;53.05;;;18.10;86.40;;;;;;4929855;28;90896;-45
2023/08/01 03:47:08;;;;;;;83.35;53.25;;;18.10;87.30;;;;;;4927787;28;90102;-45
2023/08/01 03:49:33;;;;;;;85.18;53.58;;;18.00;85.40;;;;;;4927050;28;91470;-44
2023/08/01 03:51:59;;;;;;;84.55;53.70;;;18.00;85.80;;;;;;4926727;28;89635;-47
2023/08/01 03:54:25;;;;;;;83.75;53.33;;;18.00;85.90;;;;;;4925754;28;89837;-44
2023/08/01 03:56:50;;;;;;;82.60;53.25;;;18.00;85.70;;;;;;4923776;28;94893;-44
2023/08/01 03:59:17;;;;;;;83.05;53.33;;;18.00;86.40;;;;;;4924020;28;89545;-45
2023/08/01 04:01:43;;;;;;;82.03;53.17;;;18.00;87.10;;;;;;4919806;28;89877;-44
2023/08/01 04:04:09;;;;;;;82.40;53.33;;;18.00;87.50;;;;;;4915691;28;92654;-47
2023/08/01 04:06:35;;;;;;;84.47;53.85;;;18.00;88.10;;;;;;4926368;28;89362;-45
2023/08/01 04:09:00;;;;;;;84.40;53.90;;;18.00;85.40;;;;;;4925236;28;90477;-43
2023/08/01 04:11:27;;;;;;;84.03;53.72;;;18.00;88.60;;;;;;4922897;28;90255;-43
2023/08/01 04:13:52;;;;;;;84.43;53.92;;;18.00;85.50;;;;;;4912954;28;92163;-44
2023/08/01 04:16:19;;;;;;;83.35;53.90;;;17.90;85.60;;;;;;4921401;28;91126;-43
2023/08/01 04:18:44;;;;;;;83.93;53.63;;;18.00;85.30;;;;;;4923446;28;91054;-44
2023/08/01 04:21:11;;;;;;;84.45;53.50;;;18.00;85.70;;;;;;4922547;28;91902;-44
2023/08/01 04:23:37;;;;;;;84.38;53.28;;;18.00;87.00;;;;;;4908519;28;89635;-43
2023/08/01 04:26:05;;;;;;;84.90;54.00;;;18.00;85.30;;;;;;4921815;28;92629;-44
2023/08/01 04:28:32;;;;;;;84.47;53.55;;;18.00;87.90;;;;;;4922843;28;89610;-44
2023/08/01 04:30:57;;;;;;;85.40;53.85;;;18.00;88.00;;;;;;4922002;28;89817;-44
2023/08/01 04:33:23;;;;;;;86.60;53.53;;;18.00;86.20;;;;;;4923966;28;91098;-44
2023/08/01 04:35:49;;;;;;;83.63;53.88;;;18.00;86.90;;;;;;4924640;28;90577;-44
2023/08/01 04:38:15;;;;;;;86.43;54.00;;;18.00;85.80;;;;;;4922782;28;91842;-44
2023/08/01 04:40:40;;;;;;;85.18;54.08;;;18.00;89.50;;;;;;4924648;28;91695;-45
2023/08/01 04:43:06;;;;;;;83.65;53.72;;;18.00;87.70;;;;;;4921755;28;94555;-45
2023/08/01 04:45:31;;;;;;;87.65;54.08;;;18.00;85.30;;;;;;4923269;28;90134;-45
2023/08/01 04:47:57;;;;;;;82.22;53.35;;;18.00;88.20;;;;;;4924870;28;91742;-44
2023/08/01 04:50:22;;;;;;;84.07;53.80;;;18.00;85.10;;;;;;4926496;28;91581;-44
2023/08/01 04:52:48;;;;;;;82.72;53.53;;;18.00;87.90;;;;;;4878830;28;1208430;-44
2023/08/01 04:55:14;;;;;;;83.32;53.53;;;18.00;88.10;;;;;;4918016;28;88962;-44
2023/08/01 04:57:39;;;;;;;85.10;53.85;;;18.00;86.20;;;;;;4921571;28;90752;-45
2023/08/01 05:00:06;;;;;;;83.70;53.13;;;18.00;86.20;;;;;;4923802;28;92585;-44
2023/08/01 05:02:31;;;;;;;81.47;53.00;;;18.00;85.60;;;;;;4921354;28;91461;-44
2023/08/01 05:04:57;;;;;;;83.80;53.67;;;18.00;85.20;;;;;;4923472;28;90278;-44
2023/08/01 05:07:22;;;;;;;83.13;53.95;;;18.00;86.70;;;;;;4923315;28;96118;-44
2023/08/01 05:09:48;;;;;;;83.80;53.30;;;18.10;86.90;;;;;;4916828;28;89729;-45
2023/08/01 05:12:14;;;;;;;82.88;53.40;;;18.00;84.80;;;;;;4922137;28;92551;-44
2023/08/01 05:14:39;;;;;;;83.50;53.60;;;18.10;84.80;;;;;;4924485;28;91573;-44
2023/08/01 05:17:05;;;;;;;84.53;53.58;;;18.10;84.70;;;;;;4924148;28;89891;-44
2023/08/01 05:19:31;;;;;;;84.05;53.90;;;18.10;84.80;;;;;;4923284;28;91025;-44
2023/08/01 05:21:57;;;;;;;83.35;53.40;;;18.10;85.00;;;;;;4922881;28;90651;-45
2023/08/01 05:24:22;;;;;;;82.85;53.38;;;18.10;85.00;;;;;;4923975;28;90865;-45
2023/08/01 05:26:48;;;;;;;83.32;53.80;;;18.10;84.80;;;;;;4920496;28;90601;-44
2023/08/01 05:29:14;;;;;;;83.72;53.78;;;18.10;87.80;;;;;;4921333;28;89571;-45
2023/08/01 05:31:39;;;;;;;84.85;53.58;;;18.10;86.80;;;;;;4921492;28;90341;-43
2023/08/01 05:34:05;;;;;;;83.30;53.47;;;18.10;85.40;;;;;;4930958;28;91523;-44
2023/08/01 05:36:30;;;;;;;84.47;53.75;;;18.20;87.50;;;;;;4928524;28;89907;-45
2023/08/01 05:38:57;;;;;;;84.82;53.60;;;18.20;84.90;;;;;;4927242;28;93287;-45
2023/08/01 05:41:23;;;;;;;85.88;54.03;;;18.20;84.90;;;;;;4924793;28;90888;-44
2023/08/01 05:43:49;;;;;;;84.60;53.95;;;18.20;86.20;;;;;;4925800;28;89538;-45
2023/08/01 05:46:15;;;;;;;85.07;53.88;;;18.20;84.20;;;;;;4927544;28;93508;-45
2023/08/01 05:48:41;;;;;;;84.03;53.40;;;18.20;85.50;;;;;;4927529;28;90877;-45
2023/08/01 05:51:07;;;;;;;82.45;53.10;;;18.30;84.70;;;;;;4930173;28;94517;-45
2023/08/01 05:53:33;;;;;;;85.25;53.78;;;18.30;84.50;;;;;;4929401;28;90831;-46
2023/08/01 05:55:58;;;;;;;84.28;53.88;;;18.30;84.40;;;;;;4926527;28;92529;-47
2023/08/01 05:58:24;;;;;;;83.95;53.70;;;18.30;85.80;;;;;;4932827;28;90386;-43
2023/08/01 06:00:50;;;;;;;88.03;53.63;;;18.30;85.50;;;;;;4925114;28;93596;-45
2023/08/01 06:03:16;;;;;;;85.07;53.67;;;18.30;84.30;;;;;;4932237;28;90508;-44
2023/08/01 06:05:42;;;;;;;84.22;54.05;;;18.40;84.40;;;;;;4929226;28;90789;-44
2023/08/01 06:08:08;;;;;;;86.07;54.05;;;18.40;84.70;;;;;;4930414;28;89383;-45
2023/08/01 06:10:36;;;;;;;84.90;53.80;;;18.40;84.80;;;;;;4927067;28;92663;-44
2023/08/01 06:13:02;;;;;;;85.38;54.42;;;18.50;85.80;;;;;;4931621;28;89854;-45
2023/08/01 06:15:28;;;;;;;86.72;54.45;;;18.50;86.70;;;;;;4933819;28;91600;-44
2023/08/01 06:17:53;;;;;;;85.38;54.28;;;18.60;84.60;;;;;;4934480;28;89475;-45
2023/08/01 06:20:19;;;;;;;83.95;53.65;;;18.60;84.20;;;;;;4926149;28;90247;-47
2023/08/01 06:22:45;;;;;;;83.65;53.97;;;18.60;90.10;;;;;;4929215;28;90929;-46
2023/08/01 06:25:11;;;;;;;85.53;54.15;;;18.60;85.50;;;;;;4917527;28;92315;-46
2023/08/01 06:27:37;;;;;;;86.32;54.55;;;18.60;84.30;;;;;;4925830;28;93980;-46
2023/08/01 06:30:03;;;;;;;85.25;54.30;;;18.70;85.70;;;;;;4930677;28;91360;-44
2023/08/01 06:32:29;;;;;;;87.40;54.30;;;18.70;87.80;;;;;;4925924;28;90093;-44
2023/08/01 06:34:54;;;;;;;86.25;54.25;;;18.70;84.00;;;;;;4927760;28;90234;-46
2023/08/01 06:37:20;;;;;;;86.72;54.45;;;18.80;86.90;;;;;;4932944;28;90029;-46
2023/08/01 06:39:45;;;;;;;88.05;54.55;;;18.80;86.00;;;;;;4927233;28;93012;-44
2023/08/01 06:42:11;;;;;;;86.32;54.45;;;18.90;90.80;;;;;;4932958;28;90006;-45
2023/08/01 06:44:37;;;;;;;86.30;54.17;;;19.00;91.20;;;;;;4931346;28;90871;-45
2023/08/01 06:47:02;;;;;;;87.30;54.55;;;19.10;89.40;;;;;;4929328;28;91961;-45
2023/08/01 06:49:28;;;;;;;88.57;54.97;;;19.10;91.80;;;;;;4933228;28;91203;-44
2023/08/01 06:51:54;;;;;;;88.60;54.58;;;19.10;87.70;;;;;;4929316;28;94305;-44
2023/08/01 06:54:19;;;;;;;87.07;55.10;;;19.10;85.50;;;;;;4926411;28;89979;-44
2023/08/01 06:56:47;;;;;;;91.95;54.97;;;19.10;88.90;;;;;;4931531;28;89202;-44
2023/08/01 06:59:16;;;;;;;86.07;54.08;;;19.10;85.90;;;;;;4916539;28;90217;-44
2023/08/01 07:01:43;;;;;;;91.53;54.42;;;19.10;84.80;;;;;;4930248;28;91861;-44
2023/08/01 07:04:13;;;;;;;88.90;54.70;;;19.20;85.10;;;;;;4928931;28;90631;-44
2023/08/01 07:06:39;;;;;;;88.30;54.60;;;19.20;87.70;;;;;;4928778;28;90183;-44
2023/08/01 07:09:05;;;;;;;88.53;54.20;;;19.20;84.90;;;;;;4929334;28;92842;-46
2023/08/01 07:11:31;;;;;;;94.22;54.58;;;19.20;84.20;;;;;;4931276;28;89984;-46
2023/08/01 07:13:56;;;;;;;88.03;54.45;;;19.30;85.50;;;;;;4930582;28;89463;-46
2023/08/01 07:16:22;;;;;;;88.30;54.45;;;19.40;84.40;;;;;;4930242;28;89556;-45
2023/08/01 07:18:50;;;;;;;89.20;54.90;;;19.30;84.10;;;;;;4931990;28;90046;-44
2023/08/01 07:21:16;;;;;;;86.55;54.47;;;19.40;84.10;;;;;;4933843;28;90743;-44
2023/08/01 07:23:43;;;;;;;89.65;54.58;;;19.50;84.40;;;;;;4927370;28;91501;-44
2023/08/01 07:26:09;;;;;;;86.03;54.10;;;19.50;82.90;;;;;;4912612;28;89911;-46
2023/08/01 07:28:35;;;;;;;86.60;54.42;;;19.50;83.20;;;;;;4926861;28;93496;-44
2023/08/01 07:31:02;;;;;;;88.10;54.83;;;19.50;84.00;;;;;;4928822;28;95145;-45
2023/08/01 07:33:28;;;;;;;88.95;54.95;;;19.50;85.60;;;;;;4929822;28;92456;-44
2023/08/01 07:35:54;;;;;;;91.53;54.63;;;19.50;86.10;;;;;;4926790;28;90281;-44
2023/08/01 07:38:19;;;;;;;90.22;54.78;;;19.60;83.20;;;;;;4926685;28;90626;-45
2023/08/01 07:40:45;;;;;;;85.90;54.17;;;19.60;83.30;;;;;;4926476;28;89773;-44
2023/08/01 07:43:11;;;;;;;88.07;54.65;;;19.70;82.80;;;;;;4928707;28;90110;-45
2023/08/01 07:45:37;;;;;;;87.80;54.65;;;19.80;83.10;;;;;;4928247;28;88730;-43
2023/08/01 07:48:03;;;;;;;88.25;54.17;;;19.80;82.50;;;;;;4929296;28;89548;-46
2023/08/01 07:50:28;;;;;;;88.35;54.80;;;19.80;83.90;;;;;;4928926;28;90082;-44
2023/08/01 07:52:54;;;;;;;86.93;54.30;;;19.80;83.80;;;;;;4927752;28;91017;-45
2023/08/01 07:55:21;;;;;;;87.75;54.70;;;19.80;82.80;;;;;;4928245;28;90254;-44
2023/08/01 07:57:47;;;;;;;88.85;54.35;;;19.80;82.80;;;;;;4930860;28;90980;-46
2023/08/01 08:00:13;;;;;;;87.32;54.05;;;19.80;82.60;;;;;;4926326;28;89499;-45
2023/08/01 08:02:39;;;;;;;88.95;54.05;;;19.80;82.60;;;;;;4930081;28;90210;-46
2023/08/01 08:05:05;;;;;;;89.72;54.45;;;19.90;82.60;;;;;;4933793;28;89610;-44
2023/08/01 08:07:31;;;;;;;88.88;54.55;;;19.90;83.80;;;;;;4927567;28;90003;-45
2023/08/01 08:09:57;;;;;;;91.13;54.38;;;20.00;83.60;;;;;;4934394;28;89077;-46
2023/08/01 08:12:22;;;;;;;85.95;54.60;;;20.00;82.10;;;;;;4929145;28;89573;-46
2023/08/01 08:14:48;;;;;;;88.50;54.30;;;20.10;83.00;;;;;;4929954;28;90323;-46
2023/08/01 08:17:15;;;;;;;87.53;54.85;;;20.20;81.60;;;;;;4928194;28;95204;-48
2023/08/01 08:19:40;;;;;;;91.47;54.40;;;20.30;84.50;;;;;;4926347;28;92371;-46
2023/08/01 08:22:06;;;;;;;90.80;54.70;;;20.30;81.40;;;;;;4926615;28;91497;-49
2023/08/01 08:24:32;;;;;;;88.85;54.20;;;20.40;81.80;;;;;;4931193;28;89915;-46
2023/08/01 08:26:57;;;;;;;88.25;54.58;;;20.40;81.10;;;;;;4927525;28;90350;-49
2023/08/01 08:29:23;;;;;;;87.88;54.45;;;20.50;82.10;;;;;;4926265;28;92561;-49
2023/08/01 08:31:49;;;;;;;90.53;54.75;;;20.50;81.30;;;;;;4930270;28;90035;-45
2023/08/01 08:34:14;;;;;;;90.80;54.17;;;20.40;80.70;;;;;;4925393;28;89712;-43
2023/08/01 08:36:40;;;;;;;87.68;54.33;;;20.40;80.90;;;;;;4926518;28;90283;-44
2023/08/01 08:39:06;;;;;;;92.93;54.55;;;20.40;81.20;;;;;;4930398;28;89887;-44
2023/08/01 08:41:42;;;;;;;88.07;54.25;;;20.50;81.00;;;;;;4926676;28;91583;-46
2023/08/01 08:44:10;;;;;;;88.38;54.42;;;20.60;80.90;;;;;;4931617;28;90231;-43
2023/08/01 08:46:42;;;;;;;93.78;54.25;;;20.60;80.30;;;;;;4927196;28;93302;-45
2023/08/01 08:49:08;;;;;;;89.53;54.78;;;20.60;80.30;;;;;;4925587;28;89518;-44
2023/08/01 08:51:35;;;;;;;88.22;54.50;;;20.60;81.00;;;;;;4930311;28;89781;-44
2023/08/01 08:54:02;;;;;;;86.80;54.10;;;20.70;81.10;;;;;;4929810;28;89771;-44
2023/08/01 08:56:29;;;;;;;88.10;54.15;;;20.70;80.50;;;;;;4923940;28;90275;-43
2023/08/01 08:58:55;;;;;;;88.28;54.17;;;20.70;81.10;;;;;;4927092;28;88765;-44
2023/08/01 09:01:20;;;;;;;90.55;54.28;;;20.70;80.50;;;;;;4929556;28;89511;-44
2023/08/01 09:03:46;;;;;;;90.60;54.10;;;20.70;80.30;;;;;;4928995;28;90258;-45
2023/08/01 09:06:16;;;;;;;87.40;53.85;;;20.70;80.80;;;;;;4922862;28;91150;-44
2023/08/01 09:08:52;;;;;;;87.53;54.47;;;20.70;81.00;;;;;;4924386;28;89765;-44
2023/08/01 09:11:18;;;;;;;88.00;54.28;;;20.70;81.40;;;;;;4928010;28;89713;-44
2023/08/01 09:13:43;;;;;;;87.10;53.80;;;20.70;80.70;;;;;;4933696;28;89302;-44
2023/08/01 09:16:11;;;;;;;87.90;54.25;;;20.70;80.40;;;;;;4926126;28;91403;-45
2023/08/01 09:18:51;;;;;;;88.13;54.30;;;20.70;81.20;;;;;;4927113;28;95031;-45
2023/08/01 09:21:20;;;;;;;90.18;54.20;;;20.70;81.80;;;;;;4929033;28;93608;-45
2023/08/01 09:23:46;;;;;;;90.50;54.13;;;20.80;81.30;;;;;;4930515;28;89950;-47
2023/08/01 09:26:16;;;;;;;89.80;54.00;;;20.80;80.10;;;;;;4930119;28;89602;-44
2023/08/01 09:28:42;;;;;;;87.33;54.03;;;20.90;79.70;;;;;;4932232;28;89882;-45
2023/08/01 09:31:07;;;;;;;87.60;54.22;;;21.00;79.40;;;;;;4931184;28;90506;-46
2023/08/01 09:33:40;;;;;;;86.30;54.00;;;21.00;80.30;;;;;;4933563;28;91245;-45
2023/08/01 09:36:08;;;;;;;90.00;54.30;;;21.00;79.90;;;;;;4930549;28;89871;-44
2023/08/01 09:38:35;;;;;;;88.35;54.20;;;21.00;79.40;;;;;;4931833;28;89725;-44
2023/08/01 09:41:02;;;;;;;86.90;53.78;;;21.00;79.30;;;;;;4927906;28;89487;-43
2023/08/01 09:43:35;;;;;;;88.60;54.20;;;20.90;79.60;;;;;;4931643;28;90076;-44
2023/08/01 09:46:01;;;;;;;87.60;54.00;;;20.80;79.90;;;;;;4934650;28;90798;-44
2023/08/01 09:48:28;;;;;;;92.85;53.85;;;20.80;80.40;;;;;;4932744;28;89738;-45
2023/08/01 09:51:06;;;;;;;88.75;54.05;;;20.80;81.20;;;;;;4926359;28;89912;-45
2023/08/01 09:53:32;;;;;;;88.75;54.25;;;20.70;80.80;;;;;;4927056;28;92409;-46
2023/08/01 09:56:01;;;;;;;89.82;53.95;;;20.70;81.10;;;;;;4930954;28;92390;-45
2023/08/01 09:58:32;;;;;;;87.97;53.85;;;20.70;80.90;;;;;;4927053;28;91955;-44
2023/08/01 10:00:58;;;;;;;89.22;53.78;;;20.70;80.80;;;;;;4933597;28;91506;-46
2023/08/01 10:03:25;;;;;;;87.35;54.08;;;20.70;80.70;;;;;;4929783;28;89288;-46
2023/08/01 10:05:53;;;;;;;90.72;53.60;;;20.80;80.90;;;;;;4933228;28;90079;-46
2023/08/01 10:08:19;;;;;;;86.30;54.05;;;20.80;80.40;;;;;;4929584;28;90155;-47
2023/08/01 10:10:46;;;;;;;90.00;53.83;;;20.90;80.40;;;;;;4927301;28;93529;-46
2023/08/01 10:13:13;;;;;;;91.05;53.85;;;21.00;80.50;;;;;;4930997;28;88794;-45
2023/08/01 10:15:40;;;;;;;87.53;53.78;;;21.00;79.40;;;;;;4932818;28;90008;-47
2023/08/01 10:18:05;;;;;;;87.38;53.97;;;21.10;79.30;;;;;;4929349;28;90342;-50
2023/08/01 10:20:32;;;;;;;89.22;54.38;;;21.10;79.90;;;;;;4928635;28;92824;-45
2023/08/01 10:22:59;;;;;;;86.25;53.67;;;21.10;79.10;;;;;;4933311;28;91550;-49
2023/08/01 10:25:26;;;;;;;86.63;53.95;;;21.00;79.60;;;;;;4925031;28;89476;-47
2023/08/01 10:28:05;;;;;;;87.80;54.17;;;21.00;79.60;;;;;;4931670;28;91700;-47
2023/08/01 10:30:31;;;;;;;89.03;53.92;;;21.00;80.00;;;;;;4929899;28;89995;-47
2023/08/01 10:32:58;;;;;;;86.80;53.78;;;21.00;79.90;;;;;;4931913;28;89599;-45
2023/08/01 10:35:37;;;;;;;86.28;53.95;;;21.00;79.80;;;;;;4931184;28;90700;-45
2023/08/01 10:38:07;;;;;;;86.65;54.15;;;21.10;80.60;;;;;;4929718;28;89587;-46
2023/08/01 10:40:43;;;;;;;86.45;53.97;;;21.10;80.70;;;;;;4927117;28;94135;-45
2023/08/01 10:43:38;;;;;;;87.72;54.13;;;21.10;80.10;;;;;;4928855;28;93203;-44
2023/08/01 10:46:04;;;;;;;86.13;53.80;;;21.20;79.30;;;;;;4912645;28;90742;-47
2023/08/01 10:48:29;;;;;;;87.88;54.10;;;21.20;79.20;;;;;;4928131;28;90874;-45
2023/08/01 10:50:56;;;;;;;87.93;54.13;;;21.30;78.60;;;;;;4929825;28;90607;-46
2023/08/01 10:53:22;;;;;;;91.00;54.40;;;21.30;78.90;;;;;;4928068;28;89814;-46
2023/08/01 10:55:48;;;;;;;87.63;54.53;;;21.40;78.80;;;;;;4927029;28;90083;-47
2023/08/01 10:58:15;;;;;;;89.18;54.58;;;21.50;78.30;;;;;;4931708;28;89908;-45
2023/08/01 11:00:42;;;;;;;88.85;54.20;;;21.50;77.30;;;;;;4917400;28;90172;-45
2023/08/01 11:03:08;;;;;;;87.50;54.75;;;21.70;77.00;;;;;;4932950;28;89782;-44
2023/08/01 11:05:34;;;;;;;87.13;54.53;;;21.80;76.90;;;;;;4931189;28;90263;-45
2023/08/01 11:08:02;;;;;;;87.93;54.88;;;21.90;76.20;;;;;;4927877;28;91515;-45
2023/08/01 11:10:29;;;;;;;89.78;54.53;;;21.90;76.90;;;;;;4929714;28;93795;-46
2023/08/01 11:12:56;;;;;;;87.57;54.55;;;22.00;75.90;;;;;;4933148;28;90438;-44
2023/08/01 11:15:22;;;;;;;93.18;54.80;;;22.00;75.30;;;;;;4931677;28;89286;-45
2023/08/01 11:17:50;;;;;;;87.70;54.60;;;22.10;74.90;;;;;;4933679;28;89438;-46
2023/08/01 11:20:16;;;;;;;89.15;54.42;;;22.10;74.80;;;;;;4927277;28;91191;-45
2023/08/01 11:23:02;;;;;;;87.93;54.60;;;22.20;75.10;;;;;;4931480;28;90044;-45
2023/08/01 11:25:35;;;;;;;88.30;54.47;;;22.10;74.70;;;;;;4931533;28;90778;-45
2023/08/01 11:28:14;;;;;;;88.88;54.88;;;22.20;74.40;;;;;;4931515;28;89501;-45
2023/08/01 11:30:40;;;;;;;87.82;54.55;;;22.20;74.50;;;;;;4932151;28;90099;-45
2023/08/01 11:33:22;;;;;;;87.80;54.45;;;22.30;74.70;;;;;;4926794;28;90261;-45
2023/08/01 11:35:59;;;;;;;87.25;54.40;;;22.30;74.90;;;;;;4925320;28;91129;-44
2023/08/01 11:38:29;;;;;;;88.57;54.95;;;22.30;75.00;;;;;;4925696;28;91025;-46
2023/08/01 11:40:56;;;;;;;93.25;54.90;;;22.40;74.70;;;;;;4925975;28;89589;-44
2023/08/01 11:43:21;;;;;;;91.05;55.05;;;22.40;74.30;;;;;;4925470;28;90391;-44
2023/08/01 11:45:55;;;;;;;87.75;54.45;;;22.40;74.80;;;;;;4928363;28;89619;-44
2023/08/01 11:48:23;;;;;;;88.22;54.65;;;22.40;74.90;;;;;;4927286;28;90945;-44
2023/08/01 11:50:49;;;;;;;91.85;54.85;;;22.40;74.60;;;;;;4930628;28;89543;-44
2023/08/01 11:53:19;;;;;;;89.28;54.47;;;22.40;75.20;;;;;;4933425;28;89219;-44
2023/08/01 11:55:45;;;;;;;89.50;54.70;;;22.40;75.20;;;;;;4926311;28;94382;-44
2023/08/01 11:58:10;;;;;;;88.95;54.65;;;22.30;76.40;;;;;;4929484;28;90098;-46
2023/08/01 12:00:36;;;;;;;88.00;54.83;;;22.30;75.90;;;;;;4930015;28;91255;-44
2023/08/01 12:03:06;;;;;;;87.72;54.90;;;22.40;75.60;;;;;;4930079;28;91970;-44
2023/08/01 12:05:32;;;;;;;88.60;55.15;;;22.50;75.90;;;;;;4932449;28;89709;-45
2023/08/01 12:08:09;;;;;;;90.90;54.95;;;22.50;75.70;;;;;;4930035;28;90221;-44
2023/08/01 12:10:42;;;;;;;96.55;54.80;;;22.60;75.50;;;;;;4928070;28;89772;-45
2023/08/01 12:13:29;;;;;;;90.85;55.28;;;22.70;74.90;;;;;;4930329;28;89408;-46
2023/08/01 12:15:59;;;;;;;91.53;55.08;;;22.80;74.50;;;;;;4928501;28;91093;-45
2023/08/01 12:18:29;;;;;;;90.55;55.13;;;22.80;74.60;;;;;;4931238;28;89190;-46
2023/08/01 12:20:55;;;;;;;88.32;55.45;;;22.80;74.30;;;;;;4924140;28;89558;-48
2023/08/01 12:23:21;;;;;;;89.45;55.33;;;22.90;74.20;;;;;;4930375;28;89800;-44